sensor_id;sensor_type;location;lat;lon;timestamp;temperature;humidity
16402;DHT22;8310;44.626;11.176;2023-05-18T00:01:20;16.50;73.40
16402;DHT22;8310;44.626;11.176;2023-05-18T00:03:47;16.50;73.50
16402;DHT22;8310;44.626;11.176;2023-05-18T00:06:19;16.50;73.40
16402;DHT22;8310;44.626;11.176;2023-05-18T00:08:46;16.50;73.40
16402;DHT22;8310;44.626;11.176;2023-05-18T00:11:14;16.40;73.30
16402;DHT22;8310;44.626;11.176;2023-05-18T00:13:41;16.40;73.20
16402;DHT22;8310;44.626;11.176;2023-05-18T00:16:10;16.30;73.30
16402;DHT22;8310;44.626;11.176;2023-05-18T00:18:40;16.30;73.30
16402;DHT22;8310;44.626;11.176;2023-05-18T00:21:07;16.40;73.50
16402;DHT22;8310;44.626;11.176;2023-05-18T00:23:35;16.40;73.40
16402;DHT22;8310;44.626;11.176;2023-05-18T00:26:03;16.30;73.50
16402;DHT22;8310;44.626;11.176;2023-05-18T00:28:30;16.20;73.10
16402;DHT22;8310;44.626;11.176;2023-05-18T00:30:57;16.20;73.10
16402;DHT22;8310;44.626;11.176;2023-05-18T00:33:27;16.20;73.10
16402;DHT22;8310;44.626;11.176;2023-05-18T00:35:54;16.10;73.20
16402;DHT22;8310;44.626;11.176;2023-05-18T00:38:22;16.10;73.30
16402;DHT22;8310;44.626;11.176;2023-05-18T00:40:50;16.10;73.30
16402;DHT22;8310;44.626;11.176;2023-05-18T00:43:17;16.10;73.40
16402;DHT22;8310;44.626;11.176;2023-05-18T00:45:44;16.10;73.50
16402;DHT22;8310;44.626;11.176;2023-05-18T00:48:11;16.10;73.40
16402;DHT22;8310;44.626;11.176;2023-05-18T00:50:40;16.10;73.40
16402;DHT22;8310;44.626;11.176;2023-05-18T00:53:07;16.10;73.50
16402;DHT22;8310;44.626;11.176;2023-05-18T00:55:35;16.10;73.50
16402;DHT22;8310;44.626;11.176;2023-05-18T00:58:03;16.10;73.60
16402;DHT22;8310;44.626;11.176;2023-05-18T01:00:31;16.10;73.50
16402;DHT22;8310;44.626;11.176;2023-05-18T01:03:02;16.10;73.50
16402;DHT22;8310;44.626;11.176;2023-05-18T01:05:29;16.10;73.50
16402;DHT22;8310;44.626;11.176;2023-05-18T01:07:58;16.10;73.50
16402;DHT22;8310;44.626;11.176;2023-05-18T01:10:27;16.10;73.50
16402;DHT22;8310;44.626;11.176;2023-05-18T01:12:56;16.10;73.60
16402;DHT22;8310;44.626;11.176;2023-05-18T01:15:27;16.10;73.50
16402;DHT22;8310;44.626;11.176;2023-05-18T01:18:01;16.00;73.40
16402;DHT22;8310;44.626;11.176;2023-05-18T01:20:36;16.00;73.40
16402;DHT22;8310;44.626;11.176;2023-05-18T01:28:22;16.00;73.40
16402;DHT22;8310;44.626;11.176;2023-05-18T01:30:51;16.00;73.40
16402;DHT22;8310;44.626;11.176;2023-05-18T01:33:18;16.00;73.50
16402;DHT22;8310;44.626;11.176;2023-05-18T01:35:45;16.00;73.60
16402;DHT22;8310;44.626;11.176;2023-05-18T01:38:14;16.00;73.50
16402;DHT22;8310;44.626;11.176;2023-05-18T01:40:44;16.00;73.50
16402;DHT22;8310;44.626;11.176;2023-05-18T01:43:12;15.90;73.40
16402;DHT22;8310;44.626;11.176;2023-05-18T01:45:44;15.90;73.40
16402;DHT22;8310;44.626;11.176;2023-05-18T01:48:14;15.90;73.40
16402;DHT22;8310;44.626;11.176;2023-05-18T01:50:43;15.90;73.40
16402;DHT22;8310;44.626;11.176;2023-05-18T01:53:15;15.90;73.50
16402;DHT22;8310;44.626;11.176;2023-05-18T01:55:46;15.90;73.60
16402;DHT22;8310;44.626;11.176;2023-05-18T01:58:14;15.90;73.60
16402;DHT22;8310;44.626;11.176;2023-05-18T02:00:44;15.90;73.70
16402;DHT22;8310;44.626;11.176;2023-05-18T02:03:12;15.90;73.70
16402;DHT22;8310;44.626;11.176;2023-05-18T02:05:39;15.90;73.70
16402;DHT22;8310;44.626;11.176;2023-05-18T02:08:07;15.90;73.70
16402;DHT22;8310;44.626;11.176;2023-05-18T02:10:35;15.90;73.70
16402;DHT22;8310;44.626;11.176;2023-05-18T02:13:02;15.90;73.70
16402;DHT22;8310;44.626;11.176;2023-05-18T02:15:30;15.90;73.70
16402;DHT22;8310;44.626;11.176;2023-05-18T02:17:58;15.90;73.70
16402;DHT22;8310;44.626;11.176;2023-05-18T02:20:27;15.90;73.70
16402;DHT22;8310;44.626;11.176;2023-05-18T02:22:57;15.90;73.70
16402;DHT22;8310;44.626;11.176;2023-05-18T02:25:24;15.90;73.60
16402;DHT22;8310;44.626;11.176;2023-05-18T02:27:52;15.90;73.60
16402;DHT22;8310;44.626;11.176;2023-05-18T02:30:19;15.90;73.60
16402;DHT22;8310;44.626;11.176;2023-05-18T02:32:51;15.90;73.60
16402;DHT22;8310;44.626;11.176;2023-05-18T02:35:20;15.90;73.60
16402;DHT22;8310;44.626;11.176;2023-05-18T02:37:47;15.90;73.60
16402;DHT22;8310;44.626;11.176;2023-05-18T02:40:14;15.80;73.50
16402;DHT22;8310;44.626;11.176;2023-05-18T02:42:41;15.80;73.50
16402;DHT22;8310;44.626;11.176;2023-05-18T02:45:09;15.80;73.60
16402;DHT22;8310;44.626;11.176;2023-05-18T02:47:37;15.80;73.60
16402;DHT22;8310;44.626;11.176;2023-05-18T02:50:04;15.70;73.50
16402;DHT22;8310;44.626;11.176;2023-05-18T02:52:33;15.80;73.60
16402;DHT22;8310;44.626;11.176;2023-05-18T02:55:00;15.70;73.80
16402;DHT22;8310;44.626;11.176;2023-05-18T02:57:27;15.70;73.40
16402;DHT22;8310;44.626;11.176;2023-05-18T02:59:56;15.70;73.50
16402;DHT22;8310;44.626;11.176;2023-05-18T03:02:23;15.70;73.60
16402;DHT22;8310;44.626;11.176;2023-05-18T03:04:52;15.70;73.70
16402;DHT22;8310;44.626;11.176;2023-05-18T03:07:22;15.60;73.40
16402;DHT22;8310;44.626;11.176;2023-05-18T03:09:50;15.60;73.50
16402;DHT22;8310;44.626;11.176;2023-05-18T03:12:17;15.60;73.40
16402;DHT22;8310;44.626;11.176;2023-05-18T03:14:45;15.60;73.40
16402;DHT22;8310;44.626;11.176;2023-05-18T03:17:12;15.60;73.60
16402;DHT22;8310;44.626;11.176;2023-05-18T03:19:39;15.60;73.80
16402;DHT22;8310;44.626;11.176;2023-05-18T03:22:06;15.50;73.70
16402;DHT22;8310;44.626;11.176;2023-05-18T03:24:34;15.50;73.60
16402;DHT22;8310;44.626;11.176;2023-05-18T03:27:06;15.50;73.70
16402;DHT22;8310;44.626;11.176;2023-05-18T03:29:33;15.50;73.80
16402;DHT22;8310;44.626;11.176;2023-05-18T03:32:01;15.60;73.90
16402;DHT22;8310;44.626;11.176;2023-05-18T03:34:28;15.60;73.90
16402;DHT22;8310;44.626;11.176;2023-05-18T03:36:55;15.60;73.90
16402;DHT22;8310;44.626;11.176;2023-05-18T03:39:22;15.60;73.80
16402;DHT22;8310;44.626;11.176;2023-05-18T03:41:49;15.60;73.70
16402;DHT22;8310;44.626;11.176;2023-05-18T03:44:18;15.60;73.50
16402;DHT22;8310;44.626;11.176;2023-05-18T03:46:45;15.60;73.50
16402;DHT22;8310;44.626;11.176;2023-05-18T03:49:13;15.50;73.50
16402;DHT22;8310;44.626;11.176;2023-05-18T03:51:40;15.50;73.60
16402;DHT22;8310;44.626;11.176;2023-05-18T03:54:07;15.50;73.70
16402;DHT22;8310;44.626;11.176;2023-05-18T03:56:34;15.50;73.70
16402;DHT22;8310;44.626;11.176;2023-05-18T03:59:01;15.50;73.70
16402;DHT22;8310;44.626;11.176;2023-05-18T04:01:31;15.50;73.70
16402;DHT22;8310;44.626;11.176;2023-05-18T04:03:58;15.50;73.80
16402;DHT22;8310;44.626;11.176;2023-05-18T04:06:26;15.50;73.80
16402;DHT22;8310;44.626;11.176;2023-05-18T04:08:53;15.50;73.90
16402;DHT22;8310;44.626;11.176;2023-05-18T04:11:20;15.60;73.90
16402;DHT22;8310;44.626;11.176;2023-05-18T04:13:48;15.60;73.80
16402;DHT22;8310;44.626;11.176;2023-05-18T04:16:15;15.60;73.90
16402;DHT22;8310;44.626;11.176;2023-05-18T04:18:44;15.60;73.90
16402;DHT22;8310;44.626;11.176;2023-05-18T04:21:11;15.60;74.00
16402;DHT22;8310;44.626;11.176;2023-05-18T04:23:40;15.60;74.00
16402;DHT22;8310;44.626;11.176;2023-05-18T04:26:08;15.60;74.00
16402;DHT22;8310;44.626;11.176;2023-05-18T04:28:35;15.60;74.10
16402;DHT22;8310;44.626;11.176;2023-05-18T04:31:02;15.60;74.00
16402;DHT22;8310;44.626;11.176;2023-05-18T04:33:29;15.70;74.10
16402;DHT22;8310;44.626;11.176;2023-05-18T04:35:58;15.70;74.10
16402;DHT22;8310;44.626;11.176;2023-05-18T04:38:29;15.70;74.10
16402;DHT22;8310;44.626;11.176;2023-05-18T04:40:56;15.60;74.10
16402;DHT22;8310;44.626;11.176;2023-05-18T04:43:25;15.70;74.20
16402;DHT22;8310;44.626;11.176;2023-05-18T04:45:52;15.70;74.20
16402;DHT22;8310;44.626;11.176;2023-05-18T04:48:19;15.70;74.20
16402;DHT22;8310;44.626;11.176;2023-05-18T04:50:47;15.70;74.30
16402;DHT22;8310;44.626;11.176;2023-05-18T04:53:16;15.80;74.40
16402;DHT22;8310;44.626;11.176;2023-05-18T04:55:43;15.80;74.50
16402;DHT22;8310;44.626;11.176;2023-05-18T04:58:10;15.80;74.40
16402;DHT22;8310;44.626;11.176;2023-05-18T05:00:38;15.80;74.40
16402;DHT22;8310;44.626;11.176;2023-05-18T05:03:05;15.90;74.50
16402;DHT22;8310;44.626;11.176;2023-05-18T05:05:32;15.90;74.50
16402;DHT22;8310;44.626;11.176;2023-05-18T05:08:00;15.90;74.40
16402;DHT22;8310;44.626;11.176;2023-05-18T05:10:30;15.90;74.50
16402;DHT22;8310;44.626;11.176;2023-05-18T05:12:57;15.90;74.50
16402;DHT22;8310;44.626;11.176;2023-05-18T05:15:25;15.90;74.50
16402;DHT22;8310;44.626;11.176;2023-05-18T05:17:52;15.90;74.50
16402;DHT22;8310;44.626;11.176;2023-05-18T05:20:19;15.90;74.60
16402;DHT22;8310;44.626;11.176;2023-05-18T05:22:47;16.00;74.70
16402;DHT22;8310;44.626;11.176;2023-05-18T05:25:14;16.00;74.70
16402;DHT22;8310;44.626;11.176;2023-05-18T05:27:43;16.10;74.70
16402;DHT22;8310;44.626;11.176;2023-05-18T05:30:10;16.10;74.70
16402;DHT22;8310;44.626;11.176;2023-05-18T05:32:38;16.10;74.80
16402;DHT22;8310;44.626;11.176;2023-05-18T05:35:05;16.10;74.80
16402;DHT22;8310;44.626;11.176;2023-05-18T05:37:33;16.20;74.90
16402;DHT22;8310;44.626;11.176;2023-05-18T05:40:05;16.20;74.80
16402;DHT22;8310;44.626;11.176;2023-05-18T05:42:34;16.20;74.80
16402;DHT22;8310;44.626;11.176;2023-05-18T05:45:03;16.20;74.80
16402;DHT22;8310;44.626;11.176;2023-05-18T05:47:30;16.20;74.80
16402;DHT22;8310;44.626;11.176;2023-05-18T05:49:57;16.30;74.90
16402;DHT22;8310;44.626;11.176;2023-05-18T05:52:24;16.40;75.10
16402;DHT22;8310;44.626;11.176;2023-05-18T05:54:53;16.40;75.10
16402;DHT22;8310;44.626;11.176;2023-05-18T05:57:19;16.40;75.10
16402;DHT22;8310;44.626;11.176;2023-05-18T05:59:47;16.40;75.10
16402;DHT22;8310;44.626;11.176;2023-05-18T06:02:15;16.50;75.20
16402;DHT22;8310;44.626;11.176;2023-05-18T06:04:43;16.60;75.20
16402;DHT22;8310;44.626;11.176;2023-05-18T06:07:10;16.60;75.30
16402;DHT22;8310;44.626;11.176;2023-05-18T06:09:37;16.70;75.40
16402;DHT22;8310;44.626;11.176;2023-05-18T06:12:05;16.70;75.30
16402;DHT22;8310;44.626;11.176;2023-05-18T06:14:33;16.80;75.50
16402;DHT22;8310;44.626;11.176;2023-05-18T06:17:00;16.80;75.50
16402;DHT22;8310;44.626;11.176;2023-05-18T06:19:29;16.80;75.40
16402;DHT22;8310;44.626;11.176;2023-05-18T06:21:56;16.90;75.40
16402;DHT22;8310;44.626;11.176;2023-05-18T06:24:23;16.90;75.40
16402;DHT22;8310;44.626;11.176;2023-05-18T06:26:51;17.00;75.60
16402;DHT22;8310;44.626;11.176;2023-05-18T06:29:18;17.00;75.60
16402;DHT22;8310;44.626;11.176;2023-05-18T06:31:45;17.10;75.70
16402;DHT22;8310;44.626;11.176;2023-05-18T06:34:12;17.10;75.70
16402;DHT22;8310;44.626;11.176;2023-05-18T06:36:41;17.20;75.80
16402;DHT22;8310;44.626;11.176;2023-05-18T06:39:08;17.30;75.90
16402;DHT22;8310;44.626;11.176;2023-05-18T06:41:35;17.30;75.80
16402;DHT22;8310;44.626;11.176;2023-05-18T06:44:02;17.40;75.90
16402;DHT22;8310;44.626;11.176;2023-05-18T06:46:29;17.50;76.10
16402;DHT22;8310;44.626;11.176;2023-05-18T06:48:57;17.50;76.00
16402;DHT22;8310;44.626;11.176;2023-05-18T06:51:24;17.60;76.10
16402;DHT22;8310;44.626;11.176;2023-05-18T06:53:53;17.70;76.20
16402;DHT22;8310;44.626;11.176;2023-05-18T06:56:20;17.80;76.30
16402;DHT22;8310;44.626;11.176;2023-05-18T06:58:47;17.90;76.40
16402;DHT22;8310;44.626;11.176;2023-05-18T07:01:14;18.00;76.40
16402;DHT22;8310;44.626;11.176;2023-05-18T07:03:42;18.10;76.70
16402;DHT22;8310;44.626;11.176;2023-05-18T07:06:09;18.20;77.00
16402;DHT22;8310;44.626;11.176;2023-05-18T07:08:36;18.40;77.20
16402;DHT22;8310;44.626;11.176;2023-05-18T07:11:05;18.50;77.40
16402;DHT22;8310;44.626;11.176;2023-05-18T07:13:32;18.70;77.50
16402;DHT22;8310;44.626;11.176;2023-05-18T07:16:00;18.90;77.50
16402;DHT22;8310;44.626;11.176;2023-05-18T07:18:28;19.10;77.40
16402;DHT22;8310;44.626;11.176;2023-05-18T07:20:55;19.20;77.30
16402;DHT22;8310;44.626;11.176;2023-05-18T07:23:23;19.30;77.10
16402;DHT22;8310;44.626;11.176;2023-05-18T07:25:50;19.30;76.90
16402;DHT22;8310;44.626;11.176;2023-05-18T07:28:19;19.40;77.30
16402;DHT22;8310;44.626;11.176;2023-05-18T07:30:46;19.30;76.60
16402;DHT22;8310;44.626;11.176;2023-05-18T07:33:13;19.40;76.80
16402;DHT22;8310;44.626;11.176;2023-05-18T07:35:41;19.40;77.00
16402;DHT22;8310;44.626;11.176;2023-05-18T07:38:08;19.50;77.20
16402;DHT22;8310;44.626;11.176;2023-05-18T07:40:35;19.60;77.90
16402;DHT22;8310;44.626;11.176;2023-05-18T07:43:03;19.70;77.10
16402;DHT22;8310;44.626;11.176;2023-05-18T07:45:32;19.70;77.10
16402;DHT22;8310;44.626;11.176;2023-05-18T07:47:59;19.80;77.00
16402;DHT22;8310;44.626;11.176;2023-05-18T07:50:26;19.90;77.00
16402;DHT22;8310;44.626;11.176;2023-05-18T07:52:53;19.90;77.10
16402;DHT22;8310;44.626;11.176;2023-05-18T07:55:21;19.90;77.80
16402;DHT22;8310;44.626;11.176;2023-05-18T07:57:47;20.00;77.20
16402;DHT22;8310;44.626;11.176;2023-05-18T08:02:52;20.20;77.30
16402;DHT22;8310;44.626;11.176;2023-05-18T08:05:19;20.30;77.70
16402;DHT22;8310;44.626;11.176;2023-05-18T08:07:48;20.50;78.30
16402;DHT22;8310;44.626;11.176;2023-05-18T08:10:16;20.70;78.20
16402;DHT22;8310;44.626;11.176;2023-05-18T08:12:44;20.80;77.90
16402;DHT22;8310;44.626;11.176;2023-05-18T08:15:11;20.90;77.70
16402;DHT22;8310;44.626;11.176;2023-05-18T08:17:38;21.00;77.60
16402;DHT22;8310;44.626;11.176;2023-05-18T08:20:08;21.00;77.60
16402;DHT22;8310;44.626;11.176;2023-05-18T08:22:36;21.10;77.50
16402;DHT22;8310;44.626;11.176;2023-05-18T08:25:04;21.20;77.40
16402;DHT22;8310;44.626;11.176;2023-05-18T08:27:31;21.20;77.20
16402;DHT22;8310;44.626;11.176;2023-05-18T08:29:58;21.30;77.10
16402;DHT22;8310;44.626;11.176;2023-05-18T08:32:25;21.30;76.80
16402;DHT22;8310;44.626;11.176;2023-05-18T08:34:52;21.20;76.50
16402;DHT22;8310;44.626;11.176;2023-05-18T08:37:20;21.20;75.90
16402;DHT22;8310;44.626;11.176;2023-05-18T08:39:53;21.10;76.00
16402;DHT22;8310;44.626;11.176;2023-05-18T08:42:21;21.10;75.90
16402;DHT22;8310;44.626;11.176;2023-05-18T08:44:49;21.00;75.90
16402;DHT22;8310;44.626;11.176;2023-05-18T08:47:17;21.00;75.90
16402;DHT22;8310;44.626;11.176;2023-05-18T08:49:50;21.00;76.10
16402;DHT22;8310;44.626;11.176;2023-05-18T08:52:17;21.00;76.10
16402;DHT22;8310;44.626;11.176;2023-05-18T08:54:49;21.00;76.30
16402;DHT22;8310;44.626;11.176;2023-05-18T08:57:18;21.10;76.30
16402;DHT22;8310;44.626;11.176;2023-05-18T08:59:46;21.10;76.40
16402;DHT22;8310;44.626;11.176;2023-05-18T09:02:14;21.20;76.50
16402;DHT22;8310;44.626;11.176;2023-05-18T09:04:42;21.20;76.60
16402;DHT22;8310;44.626;11.176;2023-05-18T09:07:11;21.30;76.40
16402;DHT22;8310;44.626;11.176;2023-05-18T09:09:40;21.40;76.70
16402;DHT22;8310;44.626;11.176;2023-05-18T09:12:09;21.50;76.90
16402;DHT22;8310;44.626;11.176;2023-05-18T09:14:37;21.60;77.10
16402;DHT22;8310;44.626;11.176;2023-05-18T09:17:06;21.70;77.10
16402;DHT22;8310;44.626;11.176;2023-05-18T09:19:33;21.80;77.00
16402;DHT22;8310;44.626;11.176;2023-05-18T09:22:01;21.90;77.00
16402;DHT22;8310;44.626;11.176;2023-05-18T09:24:29;21.90;76.80
16402;DHT22;8310;44.626;11.176;2023-05-18T09:26:56;22.00;76.80
16402;DHT22;8310;44.626;11.176;2023-05-18T09:29:25;22.00;76.50
16402;DHT22;8310;44.626;11.176;2023-05-18T09:31:55;22.00;76.50
16402;DHT22;8310;44.626;11.176;2023-05-18T09:34:22;22.00;76.40
16402;DHT22;8310;44.626;11.176;2023-05-18T09:36:49;22.10;76.50
16402;DHT22;8310;44.626;11.176;2023-05-18T09:39:17;22.10;76.70
16402;DHT22;8310;44.626;11.176;2023-05-18T09:41:44;22.20;76.70
16402;DHT22;8310;44.626;11.176;2023-05-18T09:44:12;22.30;76.60
16402;DHT22;8310;44.626;11.176;2023-05-18T09:46:41;22.30;76.70
16402;DHT22;8310;44.626;11.176;2023-05-18T09:49:08;22.40;76.50
16402;DHT22;8310;44.626;11.176;2023-05-18T09:51:35;22.40;76.50
16402;DHT22;8310;44.626;11.176;2023-05-18T09:54:03;22.40;76.10
16402;DHT22;8310;44.626;11.176;2023-05-18T09:56:30;22.50;76.10
16402;DHT22;8310;44.626;11.176;2023-05-18T09:59:06;22.50;76.20
16402;DHT22;8310;44.626;11.176;2023-05-18T10:01:34;22.50;76.20
16402;DHT22;8310;44.626;11.176;2023-05-18T10:04:03;22.50;76.20
16402;DHT22;8310;44.626;11.176;2023-05-18T10:06:31;22.50;75.30
16402;DHT22;8310;44.626;11.176;2023-05-18T10:09:00;22.50;75.80
16402;DHT22;8310;44.626;11.176;2023-05-18T10:11:30;22.50;75.90
16402;DHT22;8310;44.626;11.176;2023-05-18T10:13:57;22.60;75.50
16402;DHT22;8310;44.626;11.176;2023-05-18T10:16:27;22.60;75.60
16402;DHT22;8310;44.626;11.176;2023-05-18T10:18:54;22.60;75.70
16402;DHT22;8310;44.626;11.176;2023-05-18T10:21:24;22.60;75.90
16402;DHT22;8310;44.626;11.176;2023-05-18T10:23:54;22.70;75.90
16402;DHT22;8310;44.626;11.176;2023-05-18T10:26:21;22.70;75.70
16402;DHT22;8310;44.626;11.176;2023-05-18T10:28:49;22.70;75.80
16402;DHT22;8310;44.626;11.176;2023-05-18T10:31:17;22.70;75.60
16402;DHT22;8310;44.626;11.176;2023-05-18T10:33:45;22.80;75.80
16402;DHT22;8310;44.626;11.176;2023-05-18T10:36:13;22.80;75.60
16402;DHT22;8310;44.626;11.176;2023-05-18T10:38:42;22.80;75.50
16402;DHT22;8310;44.626;11.176;2023-05-18T10:41:10;22.80;75.50
16402;DHT22;8310;44.626;11.176;2023-05-18T10:43:38;22.80;75.50
16402;DHT22;8310;44.626;11.176;2023-05-18T10:46:07;22.80;75.50
16402;DHT22;8310;44.626;11.176;2023-05-18T10:48:36;22.90;75.50
16402;DHT22;8310;44.626;11.176;2023-05-18T10:51:04;22.90;75.50
16402;DHT22;8310;44.626;11.176;2023-05-18T10:53:33;22.90;75.70
16402;DHT22;8310;44.626;11.176;2023-05-18T10:56:02;22.90;75.60
16402;DHT22;8310;44.626;11.176;2023-05-18T10:58:29;23.00;75.70
16402;DHT22;8310;44.626;11.176;2023-05-18T11:00:57;23.10;75.70
16402;DHT22;8310;44.626;11.176;2023-05-18T11:03:25;23.10;75.30
16402;DHT22;8310;44.626;11.176;2023-05-18T11:06:03;23.10;74.30
16402;DHT22;8310;44.626;11.176;2023-05-18T11:08:32;23.00;73.10
16402;DHT22;8310;44.626;11.176;2023-05-18T11:11:00;22.80;73.20
16402;DHT22;8310;44.626;11.176;2023-05-18T11:13:33;22.60;73.20
16402;DHT22;8310;44.626;11.176;2023-05-18T11:16:01;22.60;73.80
16402;DHT22;8310;44.626;11.176;2023-05-18T11:18:39;22.50;73.80
16402;DHT22;8310;44.626;11.176;2023-05-18T11:21:19;22.50;74.50
16402;DHT22;8310;44.626;11.176;2023-05-18T11:26:36;22.70;75.10
16402;DHT22;8310;44.626;11.176;2023-05-18T11:29:15;22.80;75.30
16402;DHT22;8310;44.626;11.176;2023-05-18T11:31:43;22.90;74.60
16402;DHT22;8310;44.626;11.176;2023-05-18T11:36:58;22.90;74.80
16402;DHT22;8310;44.626;11.176;2023-05-18T11:39:25;23.00;75.00
16402;DHT22;8310;44.626;11.176;2023-05-18T11:41:59;23.10;74.50
16402;DHT22;8310;44.626;11.176;2023-05-18T11:44:29;23.00;74.60
16402;DHT22;8310;44.626;11.176;2023-05-18T11:47:01;23.10;74.50
16402;DHT22;8310;44.626;11.176;2023-05-18T11:49:30;23.10;74.60
16402;DHT22;8310;44.626;11.176;2023-05-18T11:52:00;23.00;74.30
16402;DHT22;8310;44.626;11.176;2023-05-18T11:54:32;23.00;74.00
16402;DHT22;8310;44.626;11.176;2023-05-18T11:56:59;22.90;74.30
16402;DHT22;8310;44.626;11.176;2023-05-18T11:59:31;22.90;74.50
16402;DHT22;8310;44.626;11.176;2023-05-18T12:02:01;23.00;74.80
16402;DHT22;8310;44.626;11.176;2023-05-18T12:04:29;23.10;75.00
16402;DHT22;8310;44.626;11.176;2023-05-18T12:06:58;23.10;74.90
16402;DHT22;8310;44.626;11.176;2023-05-18T12:09:25;23.20;74.90
16402;DHT22;8310;44.626;11.176;2023-05-18T12:11:53;23.20;74.60
16402;DHT22;8310;44.626;11.176;2023-05-18T12:14:21;23.20;74.70
16402;DHT22;8310;44.626;11.176;2023-05-18T12:16:50;23.30;75.10
16402;DHT22;8310;44.626;11.176;2023-05-18T12:19:17;23.40;75.10
16402;DHT22;8310;44.626;11.176;2023-05-18T12:21:46;23.40;75.10
16402;DHT22;8310;44.626;11.176;2023-05-18T12:24:13;23.50;75.10
16402;DHT22;8310;44.626;11.176;2023-05-18T12:26:41;23.50;74.80
16402;DHT22;8310;44.626;11.176;2023-05-18T12:29:11;23.50;74.40
16402;DHT22;8310;44.626;11.176;2023-05-18T12:31:44;23.40;74.30
16402;DHT22;8310;44.626;11.176;2023-05-18T12:34:13;23.30;74.30
16402;DHT22;8310;44.626;11.176;2023-05-18T12:36:41;23.30;75.30
16402;DHT22;8310;44.626;11.176;2023-05-18T12:39:09;23.40;75.10
16402;DHT22;8310;44.626;11.176;2023-05-18T12:41:40;23.50;75.10
16402;DHT22;8310;44.626;11.176;2023-05-18T12:44:08;23.60;73.50
16402;DHT22;8310;44.626;11.176;2023-05-18T12:46:35;23.60;74.50
16402;DHT22;8310;44.626;11.176;2023-05-18T12:49:02;23.60;74.40
16402;DHT22;8310;44.626;11.176;2023-05-18T12:51:32;23.50;73.90
16402;DHT22;8310;44.626;11.176;2023-05-18T12:53:59;23.50;74.20
16402;DHT22;8310;44.626;11.176;2023-05-18T12:56:27;23.50;74.00
16402;DHT22;8310;44.626;11.176;2023-05-18T12:59:16;23.50;72.90
16402;DHT22;8310;44.626;11.176;2023-05-18T13:01:43;23.50;73.60
16402;DHT22;8310;44.626;11.176;2023-05-18T13:04:11;23.50;73.90
16402;DHT22;8310;44.626;11.176;2023-05-18T13:06:39;23.50;74.30
16402;DHT22;8310;44.626;11.176;2023-05-18T13:09:10;23.60;74.60
16402;DHT22;8310;44.626;11.176;2023-05-18T13:11:38;23.60;74.40
16402;DHT22;8310;44.626;11.176;2023-05-18T13:14:05;23.70;74.20
16402;DHT22;8310;44.626;11.176;2023-05-18T13:16:33;23.70;74.40
16402;DHT22;8310;44.626;11.176;2023-05-18T13:19:01;23.80;74.50
16402;DHT22;8310;44.626;11.176;2023-05-18T13:21:28;23.80;74.50
16402;DHT22;8310;44.626;11.176;2023-05-18T13:23:57;23.90;74.70
16402;DHT22;8310;44.626;11.176;2023-05-18T13:26:24;24.00;73.50
16402;DHT22;8310;44.626;11.176;2023-05-18T13:28:52;24.00;74.00
16402;DHT22;8310;44.626;11.176;2023-05-18T13:31:20;24.00;73.70
16402;DHT22;8310;44.626;11.176;2023-05-18T13:33:48;24.00;73.80
16402;DHT22;8310;44.626;11.176;2023-05-18T13:36:16;24.00;73.80
16402;DHT22;8310;44.626;11.176;2023-05-18T13:38:43;24.00;71.70
16402;DHT22;8310;44.626;11.176;2023-05-18T13:41:12;23.90;72.90
16402;DHT22;8310;44.626;11.176;2023-05-18T13:43:40;23.80;70.70
16402;DHT22;8310;44.626;11.176;2023-05-18T13:46:10;23.70;72.10
16402;DHT22;8310;44.626;11.176;2023-05-18T13:48:38;23.60;72.50
16402;DHT22;8310;44.626;11.176;2023-05-18T13:51:06;23.50;72.30
16402;DHT22;8310;44.626;11.176;2023-05-18T13:53:33;23.50;73.00
16402;DHT22;8310;44.626;11.176;2023-05-18T13:56:00;23.50;73.50
16402;DHT22;8310;44.626;11.176;2023-05-18T13:58:29;23.60;73.00
16402;DHT22;8310;44.626;11.176;2023-05-18T14:00:57;23.60;72.60
16402;DHT22;8310;44.626;11.176;2023-05-18T14:03:28;23.60;72.90
16402;DHT22;8310;44.626;11.176;2023-05-18T14:05:55;23.50;73.20
16402;DHT22;8310;44.626;11.176;2023-05-18T14:08:22;23.60;73.20
16402;DHT22;8310;44.626;11.176;2023-05-18T14:10:49;23.60;73.50
16402;DHT22;8310;44.626;11.176;2023-05-18T14:13:19;23.60;73.40
16402;DHT22;8310;44.626;11.176;2023-05-18T14:15:48;23.70;72.50
16402;DHT22;8310;44.626;11.176;2023-05-18T14:18:16;23.70;72.60
16402;DHT22;8310;44.626;11.176;2023-05-18T14:20:43;23.70;73.20
16402;DHT22;8310;44.626;11.176;2023-05-18T14:23:11;23.70;73.10
16402;DHT22;8310;44.626;11.176;2023-05-18T14:25:39;23.70;73.20
16402;DHT22;8310;44.626;11.176;2023-05-18T14:28:07;23.70;72.80
16402;DHT22;8310;44.626;11.176;2023-05-18T14:30:35;23.70;73.00
16402;DHT22;8310;44.626;11.176;2023-05-18T14:33:04;23.80;73.30
16402;DHT22;8310;44.626;11.176;2023-05-18T14:35:31;23.80;73.50
16402;DHT22;8310;44.626;11.176;2023-05-18T14:37:58;23.80;72.90
16402;DHT22;8310;44.626;11.176;2023-05-18T14:40:25;23.90;73.20
16402;DHT22;8310;44.626;11.176;2023-05-18T14:42:52;23.80;72.20
16402;DHT22;8310;44.626;11.176;2023-05-18T14:45:20;23.70;72.40
16402;DHT22;8310;44.626;11.176;2023-05-18T14:47:47;23.70;72.70
16402;DHT22;8310;44.626;11.176;2023-05-18T14:50:16;23.70;73.00
16402;DHT22;8310;44.626;11.176;2023-05-18T14:52:43;23.70;73.20
16402;DHT22;8310;44.626;11.176;2023-05-18T14:55:10;23.70;73.20
16402;DHT22;8310;44.626;11.176;2023-05-18T14:57:38;23.80;73.00
16402;DHT22;8310;44.626;11.176;2023-05-18T15:00:06;23.70;71.00
16402;DHT22;8310;44.626;11.176;2023-05-18T15:02:35;23.60;69.20
16402;DHT22;8310;44.626;11.176;2023-05-18T15:05:02;23.50;71.20
16402;DHT22;8310;44.626;11.176;2023-05-18T15:07:30;23.30;67.30
16402;DHT22;8310;44.626;11.176;2023-05-18T15:09:57;23.30;70.20
16402;DHT22;8310;44.626;11.176;2023-05-18T15:12:25;23.30;68.10
16402;DHT22;8310;44.626;11.176;2023-05-18T15:14:52;23.20;71.40
16402;DHT22;8310;44.626;11.176;2023-05-18T15:17:20;23.20;71.90
16402;DHT22;8310;44.626;11.176;2023-05-18T15:19:47;23.30;72.50
16402;DHT22;8310;44.626;11.176;2023-05-18T15:22:15;23.30;68.90
16402;DHT22;8310;44.626;11.176;2023-05-18T15:24:43;23.30;65.60
16402;DHT22;8310;44.626;11.176;2023-05-18T15:27:11;23.20;71.00
16402;DHT22;8310;44.626;11.176;2023-05-18T15:29:38;23.20;71.80
16402;DHT22;8310;44.626;11.176;2023-05-18T15:32:06;23.30;72.00
16402;DHT22;8310;44.626;11.176;2023-05-18T15:34:33;23.30;72.40
16402;DHT22;8310;44.626;11.176;2023-05-18T15:37:01;23.40;72.20
16402;DHT22;8310;44.626;11.176;2023-05-18T15:39:28;23.40;69.30
16402;DHT22;8310;44.626;11.176;2023-05-18T15:41:57;23.30;65.70
16402;DHT22;8310;44.626;11.176;2023-05-18T15:44:25;23.20;70.50
16402;DHT22;8310;44.626;11.176;2023-05-18T15:46:53;23.10;71.00
16402;DHT22;8310;44.626;11.176;2023-05-18T15:49:20;23.10;71.50